Aérodrome :
LOGIN :

S'inscrire | Disclaimer

   EN    FR    IT 

 










Légende :    VFR   VFR Marginal   IFR   IFR Intensif   IFR Très Intensif
Visi : 
Plafond : 
>= 8 km
>= 3000ft
5 à 8 km
1000 à 3000 ft
1500m à 5 km
500 à 1000 ft
800 à 1500m
200 à 500 ft
< 800m
< 200 ft
Symboles :   Orages  Brouillard  Fortes neiges  Fortes précipitations  Vent > 20 kt
SIGMETs :   Divers  Orages  Givrage  Turbulence  Onde Orograph.  Cendres Volcan.






- Altitude de l'aérodrome : 375 ft
- Code IATA : MST


EHBK - Maastricht Aachen

DERNIER METAR :
  • 091825Z AUTO VRB02KT 6000 OVC016 00/M01 Q1006 NOSIG

METARs EXPIRÉS :
  • 091755Z AUTO 30003KT 7000 OVC016 00/M01 Q1006 NOSIG
  • 091725Z AUTO 32003KT 280V350 7000 OVC016 00/M01 Q1006 NOSIG
  • 091655Z AUTO 32003KT 290V350 8000 OVC017 01/M01 Q1006 NOSIG
  • 091625Z AUTO 31004KT 9000 OVC015 01/M01 Q1006 NOSIG

TAF TAF EHBK
Valide du 09 à 18h jusqu'au 11 à 00h UTC


091722Z 0918/1024 30003KT 6000 BKN015
PROB40 1000/1011 4000 BR BKN009
PROB40 1020/1024 4000 BR BKN005



MET'MAP, la Météo Aéronautique d'un coup d'oeil ! - Copyright ORBIFLY Décembre 2007 - Disclaimer

ORBIFLY MET'MAP TEAM :

Programmation & Développement : Alexandra Zaïnal
Sur une idée originale de : Baudouin d'Aumeries
Soutien technique & logistique : Manuel Goepfert
Assistance : Marc-Olivier Méhu




SOURCES & CREDITS :

   NOAA